Impacts TAF Board INFO
FOR SITUATIONAL AWARENESS. NOT TO BE USED FOR FLIGHT PLANNING PURPOSES.
IDs:

KMSP - Minneapolis-St Paul, MN, US

Issued at 0520 UTC 22 Jan 2018
Updated at 0826 UTC 22 Jan 2018
Potential Impact None Slight Moderate High
Time<<23/09Z 23/10Z 23/11Z 23/12Z 23/13Z 23/14Z 23/15Z 23/16Z 23/17Z 23/18Z 23/19Z 23/20Z 23/21Z
Type PRVL PRVL PRVL
VIS >6 >6 >6
CIG 40 40 40
Cover BKN BKN BKN
FltCat VFR VFR VFR
WX -- -- --
WDir 350 350 350
WSpd 13 13 13
WGst -- -- --

Raw TAF
KMSP 220520Z 2206/2312 03007KT P6SM OVC070
  FM221000 03013KT P6SM SCT020 OVC035
  FM221200 03016G24KT 6SM BR VCSH OVC015
  FM221400 02016G25KT 3SM -SN BR OVC008
  FM221600 02018G26KT 2SM -SN BR OVC008
  TEMPO 2217/2221 3/4SM -SN BR VV005
  FM230000 36017G25KT 2SM -SN BR OVC020
  FM230400 35016G24KT 6SM -SN BLSN BKN025
  FM230600 35013KT P6SM BKN040


METAR Board
Radar Display
Forecast Discussion

FOR SITUATIONAL AWARENESS. NOT TO BE USED FOR FLIGHT PLANNING PURPOSES.